Manchester Village, Vermont
Current Conditions -  °F | °C
As of 7:54 AM on Thursday 23 Oct 2014 (Local Time) from KDDH Reporting Station
Light Rain Light Rain  
Wind Chill: 39°   Ceiling: 1000
Heat Index: 43°   Visibility: 4mi
Dew Point: 41°   Wind: 7mph
Humidity: 93%   Direction: 310°NW
Pressure: 29.83"   Gusts: NA
Location:  43.1635°N, 73.0724°W
Report Text: KDDH 231154Z AUTO 31006KT 4SM -RA BR OVC010 06/05 A2983 RMK AO2 SLP104 P0011 60081 70093 T00610050 10094 20061 57001
Loading
Personal Weather Stations






























Interactive Weather Map
Tropical Storm Tracking
New forecast layout! Learn more

10-Day Weather Forecast

Advertisements
Track Severe Weather on mobile